sensor_id;sensor_type;location;lat;lon;timestamp;pressure;altitude;pressure_sealevel;temperature;humidity
66486;BME280;53303;47.476;8.084;2023-03-20T00:00:51;95545.53;;;20.10;38.39
66486;BME280;53303;47.476;8.084;2023-03-20T00:03:19;95542.03;;;20.10;38.45
66486;BME280;53303;47.476;8.084;2023-03-20T00:05:45;95544.06;;;20.09;38.61
66486;BME280;53303;47.476;8.084;2023-03-20T00:08:10;95557.66;;;20.13;38.67
66486;BME280;53303;47.476;8.084;2023-03-20T00:10:43;95560.91;;;20.17;38.42
66486;BME280;53303;47.476;8.084;2023-03-20T00:13:21;95551.84;;;20.11;38.56
66486;BME280;53303;47.476;8.084;2023-03-20T00:15:48;95562.19;;;20.16;38.48
66486;BME280;53303;47.476;8.084;2023-03-20T00:18:21;95562.94;;;20.16;38.42
66486;BME280;53303;47.476;8.084;2023-03-20T00:20:50;95554.09;;;20.07;38.58
66486;BME280;53303;47.476;8.084;2023-03-20T00:23:16;95560.91;;;20.17;38.34
66486;BME280;53303;47.476;8.084;2023-03-20T00:25:45;95555.88;;;20.10;38.46
66486;BME280;53303;47.476;8.084;2023-03-20T00:28:36;95550.59;;;20.06;38.43
66486;BME280;53303;47.476;8.084;2023-03-20T00:33:52;95539.03;;;20.02;38.64
66486;BME280;53303;47.476;8.084;2023-03-20T00:36:21;95541.25;;;19.98;38.38
66486;BME280;53303;47.476;8.084;2023-03-20T00:38:49;95531.22;;;19.95;38.46
66486;BME280;53303;47.476;8.084;2023-03-20T00:43:48;95549.84;;;20.11;38.32
66486;BME280;53303;47.476;8.084;2023-03-20T00:46:15;95532.19;;;20.03;38.48
66486;BME280;53303;47.476;8.084;2023-03-20T00:48:41;95540.25;;;20.07;38.45
66486;BME280;53303;47.476;8.084;2023-03-20T00:51:10;95557.88;;;20.15;38.49
66486;BME280;53303;47.476;8.084;2023-03-20T00:53:37;95544.56;;;20.08;38.72
66486;BME280;53303;47.476;8.084;2023-03-20T00:56:06;95548.06;;;20.08;38.52
66486;BME280;53303;47.476;8.084;2023-03-20T00:58:31;95557.88;;;20.15;38.43
66486;BME280;53303;47.476;8.084;2023-03-20T01:00:57;95559.13;;;20.14;38.30
66486;BME280;53303;47.476;8.084;2023-03-20T01:03:25;95550.84;;;20.08;38.54
66486;BME280;53303;47.476;8.084;2023-03-20T01:05:51;95555.38;;;20.11;38.55
66486;BME280;53303;47.476;8.084;2023-03-20T01:08:21;95555.63;;;20.13;38.46
66486;BME280;53303;47.476;8.084;2023-03-20T01:10:49;95561.91;;;20.14;38.78
66486;BME280;53303;47.476;8.084;2023-03-20T01:13:26;95537.25;;;19.99;38.65
66486;BME280;53303;47.476;8.084;2023-03-20T01:15:56;95529.19;;;19.95;38.54
66486;BME280;53303;47.476;8.084;2023-03-20T01:18:25;95559.13;;;20.14;38.46
66486;BME280;53303;47.476;8.084;2023-03-20T01:20:53;95557.88;;;20.15;38.35
66486;BME280;53303;47.476;8.084;2023-03-20T01:23:20;95548.84;;;20.14;38.41
66486;BME280;53303;47.476;8.084;2023-03-20T01:25:51;95537.50;;;20.01;38.40
66486;BME280;53303;47.476;8.084;2023-03-20T01:28:21;95555.13;;;20.15;38.32
66486;BME280;53303;47.476;8.084;2023-03-20T01:30:48;95530.47;;;20.00;38.37
66486;BME280;53303;47.476;8.084;2023-03-20T01:33:19;95548.84;;;20.14;38.39
66486;BME280;53303;47.476;8.084;2023-03-20T01:35:50;95544.31;;;20.06;38.38
66486;BME280;53303;47.476;8.084;2023-03-20T01:38:26;95551.59;;;20.14;38.32
66486;BME280;53303;47.476;8.084;2023-03-20T01:43:21;95537.00;;;20.03;38.32
66486;BME280;53303;47.476;8.084;2023-03-20T01:48:23;95545.81;;;20.01;38.23
66486;BME280;53303;47.476;8.084;2023-03-20T01:50:52;95541.28;;;20.04;38.28
66486;BME280;53303;47.476;8.084;2023-03-20T01:53:24;95555.13;;;20.15;38.25
66486;BME280;53303;47.476;8.084;2023-03-20T01:55:53;95557.88;;;20.15;38.48
66486;BME280;53303;47.476;8.084;2023-03-20T01:58:30;95538.25;;;20.02;38.34
66486;BME280;53303;47.476;8.084;2023-03-20T02:01:02;95542.78;;;20.05;38.20
66486;BME280;53303;47.476;8.084;2023-03-20T02:03:33;95549.09;;;20.11;38.34
66486;BME280;53303;47.476;8.084;2023-03-20T02:05:59;95540.50;;;20.03;38.36
66486;BME280;53303;47.476;8.084;2023-03-20T02:08:31;95560.66;;;20.15;38.34
66486;BME280;53303;47.476;8.084;2023-03-20T02:11:00;95565.72;;;20.11;38.24
66486;BME280;53303;47.476;8.084;2023-03-20T02:13:28;95549.59;;;20.09;38.35
66486;BME280;53303;47.476;8.084;2023-03-20T02:18:32;95546.06;;;20.03;38.17
66486;BME280;53303;47.476;8.084;2023-03-20T02:26:51;95525.66;;;19.84;38.19
66486;BME280;53303;47.476;8.084;2023-03-20T02:35:01;95573.53;;;20.12;38.44
66486;BME280;53303;47.476;8.084;2023-03-20T02:40:32;95580.31;;;20.11;38.60
66486;BME280;53303;47.476;8.084;2023-03-20T02:46:01;95560.41;;;20.02;38.39
66486;BME280;53303;47.476;8.084;2023-03-20T02:48:27;95578.28;;;20.12;38.27
66486;BME280;53303;47.476;8.084;2023-03-20T02:51:03;95575.50;;;20.12;38.44
66486;BME280;53303;47.476;8.084;2023-03-20T02:53:54;95572.25;;;20.08;38.46
66486;BME280;53303;47.476;8.084;2023-03-20T02:56:33;95563.44;;;20.04;38.38
66486;BME280;53303;47.476;8.084;2023-03-20T03:01:34;95584.59;;;20.12;38.41
66486;BME280;53303;47.476;8.084;2023-03-20T03:04:07;95574.28;;;20.07;38.21
66486;BME280;53303;47.476;8.084;2023-03-20T03:06:39;95569.25;;;20.00;38.21
66486;BME280;53303;47.476;8.084;2023-03-20T03:11:40;95595.16;;;20.14;38.45
66486;BME280;53303;47.476;8.084;2023-03-20T03:14:26;95575.53;;;20.01;38.46
66486;BME280;53303;47.476;8.084;2023-03-20T03:16:55;95584.09;;;20.03;38.42
66486;BME280;53303;47.476;8.084;2023-03-20T03:19:25;95598.94;;;20.11;38.43
66486;BME280;53303;47.476;8.084;2023-03-20T03:21:52;95603.47;;;20.14;38.40
66486;BME280;53303;47.476;8.084;2023-03-20T03:27:00;95607.50;;;20.13;38.24
66486;BME280;53303;47.476;8.084;2023-03-20T03:29:34;95606.75;;;20.12;38.40
66486;BME280;53303;47.476;8.084;2023-03-20T03:32:02;95598.69;;;20.09;38.35
66486;BME280;53303;47.476;8.084;2023-03-20T03:34:30;95589.88;;;19.99;38.30
66486;BME280;53303;47.476;8.084;2023-03-20T03:39:52;95597.69;;;20.01;38.59
66486;BME280;53303;47.476;8.084;2023-03-20T03:42:26;95626.91;;;20.13;38.22
66486;BME280;53303;47.476;8.084;2023-03-20T03:45:12;95612.78;;;20.00;38.22
66486;BME280;53303;47.476;8.084;2023-03-20T03:50:56;95629.66;;;20.13;38.34
66486;BME280;53303;47.476;8.084;2023-03-20T03:53:00;95606.75;;;19.95;38.23
66486;BME280;53303;47.476;8.084;2023-03-20T03:55:33;95628.16;;;20.12;38.31
66486;BME280;53303;47.476;8.084;2023-03-20T03:58:07;95613.56;;;20.00;38.26
66486;BME280;53303;47.476;8.084;2023-03-20T04:00:39;95618.84;;;20.04;38.39
66486;BME280;53303;47.476;8.084;2023-03-20T04:03:06;95630.91;;;20.12;38.37
66486;BME280;53303;47.476;8.084;2023-03-20T04:05:40;95637.97;;;20.13;38.15
66486;BME280;53303;47.476;8.084;2023-03-20T04:08:09;95637.47;;;20.09;38.28
66486;BME280;53303;47.476;8.084;2023-03-20T04:10:37;95611.28;;;19.93;38.34
66486;BME280;53303;47.476;8.084;2023-03-20T04:13:05;95619.09;;;20.00;38.22
66486;BME280;53303;47.476;8.084;2023-03-20T04:15:32;95644.28;;;20.13;38.43
66486;BME280;53303;47.476;8.084;2023-03-20T04:18:01;95651.84;;;20.13;38.15
66486;BME280;53303;47.476;8.084;2023-03-20T04:20:26;95636.22;;;20.04;38.18
66486;BME280;53303;47.476;8.084;2023-03-20T04:22:51;95629.66;;;20.02;38.33
66486;BME280;53303;47.476;8.084;2023-03-20T04:25:22;95635.44;;;19.98;38.36
66486;BME280;53303;47.476;8.084;2023-03-20T04:27:51;95637.72;;;20.05;38.28
66486;BME280;53303;47.476;8.084;2023-03-20T04:30:16;95644.28;;;20.02;38.20
66486;BME280;53303;47.476;8.084;2023-03-20T04:32:44;95624.09;;;19.90;38.20
66486;BME280;53303;47.476;8.084;2023-03-20T04:35:12;95633.69;;;19.95;38.25
66486;BME280;53303;47.476;8.084;2023-03-20T04:37:40;95646.78;;;20.11;38.38
66486;BME280;53303;47.476;8.084;2023-03-20T04:40:05;95631.66;;;20.01;38.43
66486;BME280;53303;47.476;8.084;2023-03-20T04:42:32;95644.78;;;20.12;38.32
66486;BME280;53303;47.476;8.084;2023-03-20T04:45:00;95642.78;;;20.12;38.33
66486;BME280;53303;47.476;8.084;2023-03-20T04:47:25;95629.41;;;20.00;38.29
66486;BME280;53303;47.476;8.084;2023-03-20T04:49:53;95646.78;;;20.11;38.23
66486;BME280;53303;47.476;8.084;2023-03-20T04:52:20;95601.19;;;19.84;38.15
66486;BME280;53303;47.476;8.084;2023-03-20T04:54:46;95626.63;;;20.05;38.25
66486;BME280;53303;47.476;8.084;2023-03-20T04:57:11;95604.97;;;19.98;38.28
66486;BME280;53303;47.476;8.084;2023-03-20T04:59:39;95633.69;;;20.12;38.17
66486;BME280;53303;47.476;8.084;2023-03-20T05:02:04;95610.25;;;20.02;38.30
66486;BME280;53303;47.476;8.084;2023-03-20T05:04:32;95595.66;;;19.95;38.36
66486;BME280;53303;47.476;8.084;2023-03-20T05:07:02;95614.06;;;19.99;38.56
66486;BME280;53303;47.476;8.084;2023-03-20T05:09:32;95636.47;;;20.12;38.40
66486;BME280;53303;47.476;8.084;2023-03-20T05:12:00;95610.75;;;19.94;38.31
66486;BME280;53303;47.476;8.084;2023-03-20T05:14:28;95621.59;;;19.98;38.21
66486;BME280;53303;47.476;8.084;2023-03-20T05:16:55;95629.16;;;19.97;38.22
66486;BME280;53303;47.476;8.084;2023-03-20T05:19:26;95648.53;;;20.03;38.32
66486;BME280;53303;47.476;8.084;2023-03-20T05:21:51;95656.09;;;20.08;38.36
66486;BME280;53303;47.476;8.084;2023-03-20T05:24:19;95628.13;;;19.84;38.43
66486;BME280;53303;47.476;8.084;2023-03-20T05:26:45;95671.47;;;20.09;38.41
66486;BME280;53303;47.476;8.084;2023-03-20T05:29:13;95667.94;;;20.09;38.43
66486;BME280;53303;47.476;8.084;2023-03-20T05:31:41;95639.72;;;19.93;38.46
66486;BME280;53303;47.476;8.084;2023-03-20T05:34:06;95652.34;;;20.00;38.42
66486;BME280;53303;47.476;8.084;2023-03-20T05:36:31;95653.31;;;20.03;38.34
66486;BME280;53303;47.476;8.084;2023-03-20T05:38:59;95616.78;;;19.82;38.51
66486;BME280;53303;47.476;8.084;2023-03-20T05:41:25;95636.22;;;19.99;38.64
66486;BME280;53303;47.476;8.084;2023-03-20T05:43:53;95631.41;;;19.99;38.55
66486;BME280;53303;47.476;8.084;2023-03-20T05:46:21;95634.94;;;20.00;38.71
66486;BME280;53303;47.476;8.084;2023-03-20T05:48:49;95639.97;;;20.01;38.50
66486;BME280;53303;47.476;8.084;2023-03-20T05:51:17;95652.59;;;20.02;38.50
66486;BME280;53303;47.476;8.084;2023-03-20T05:53:45;95643.75;;;19.92;38.57
66486;BME280;53303;47.476;8.084;2023-03-20T05:56:11;95650.06;;;19.99;38.49
66486;BME280;53303;47.476;8.084;2023-03-20T05:58:38;95664.91;;;20.07;38.74
66486;BME280;53303;47.476;8.084;2023-03-20T06:01:06;95610.72;;;19.72;38.50
66486;BME280;53303;47.476;8.084;2023-03-20T06:03:32;95651.31;;;20.03;38.64
66486;BME280;53303;47.476;8.084;2023-03-20T06:05:57;95643.75;;;19.98;38.82
66486;BME280;53303;47.476;8.084;2023-03-20T06:08:22;95638.69;;;19.91;38.59
66486;BME280;53303;47.476;8.084;2023-03-20T06:10:53;95662.13;;;20.07;38.58
66486;BME280;53303;47.476;8.084;2023-03-20T06:13:19;95650.31;;;19.95;38.70
66486;BME280;53303;47.476;8.084;2023-03-20T06:15:46;95660.41;;;20.04;38.59
66486;BME280;53303;47.476;8.084;2023-03-20T06:18:12;95670.44;;;20.07;38.68
66486;BME280;53303;47.476;8.084;2023-03-20T06:20:37;95644.75;;;19.89;38.67
66486;BME280;53303;47.476;8.084;2023-03-20T06:23:03;95660.63;;;20.00;38.58
66486;BME280;53303;47.476;8.084;2023-03-20T06:25:33;95653.56;;;19.93;38.62
66486;BME280;53303;47.476;8.084;2023-03-20T06:27:58;95661.13;;;20.04;38.72
66486;BME280;53303;47.476;8.084;2023-03-20T06:30:24;95657.34;;;19.96;38.67
66486;BME280;53303;47.476;8.084;2023-03-20T06:32:49;95659.13;;;19.93;38.92
66486;BME280;53303;47.476;8.084;2023-03-20T06:35:19;95627.38;;;19.77;38.63
66486;BME280;53303;47.476;8.084;2023-03-20T06:37:45;95667.69;;;20.07;38.79
66486;BME280;53303;47.476;8.084;2023-03-20T06:40:10;95675.25;;;20.06;38.82
66486;BME280;53303;47.476;8.084;2023-03-20T06:42:38;95659.63;;;19.97;38.68
66486;BME280;53303;47.476;8.084;2023-03-20T06:45:04;95651.31;;;19.97;38.73
66486;BME280;53303;47.476;8.084;2023-03-20T06:47:33;95646.25;;;19.96;38.58
66486;BME280;53303;47.476;8.084;2023-03-20T06:50:01;95650.06;;;19.99;38.35
66486;BME280;53303;47.476;8.084;2023-03-20T06:52:29;95658.88;;;20.08;38.82
66486;BME280;53303;47.476;8.084;2023-03-20T06:54:54;95652.81;;;19.99;38.64
66486;BME280;53303;47.476;8.084;2023-03-20T06:57:22;95645.75;;;19.92;38.63
66486;BME280;53303;47.476;8.084;2023-03-20T06:59:50;95658.63;;;20.06;38.64
66486;BME280;53303;47.476;8.084;2023-03-20T07:02:15;95646.00;;;19.94;38.70
66486;BME280;53303;47.476;8.084;2023-03-20T07:04:41;95660.88;;;20.02;38.61
66486;BME280;53303;47.476;8.084;2023-03-20T07:07:08;95647.28;;;19.93;38.71
66486;BME280;53303;47.476;8.084;2023-03-20T07:09:34;95674.00;;;20.07;38.70
66486;BME280;53303;47.476;8.084;2023-03-20T07:12:00;95661.38;;;19.95;38.63
66486;BME280;53303;47.476;8.084;2023-03-20T07:14:26;95664.66;;;20.05;39.07
66486;BME280;53303;47.476;8.084;2023-03-20T07:16:52;95667.69;;;20.07;38.62
66486;BME280;53303;47.476;8.084;2023-03-20T07:19:20;95676.75;;;20.07;38.75
66486;BME280;53303;47.476;8.084;2023-03-20T07:21:48;95662.38;;;19.97;38.56
66486;BME280;53303;47.476;8.084;2023-03-20T07:24:14;95658.63;;;20.01;38.46
66486;BME280;53303;47.476;8.084;2023-03-20T07:26:44;95652.03;;;19.92;38.81
66486;BME280;53303;47.476;8.084;2023-03-20T07:29:12;95654.81;;;19.98;38.64
66486;BME280;53303;47.476;8.084;2023-03-20T07:31:38;95677.50;;;20.08;38.74
66486;BME280;53303;47.476;8.084;2023-03-20T07:34:05;95671.97;;;20.02;38.80
66486;BME280;53303;47.476;8.084;2023-03-20T07:36:33;95666.91;;;19.95;38.69
66486;BME280;53303;47.476;8.084;2023-03-20T07:39:03;95685.06;;;20.07;38.62
66486;BME280;53303;47.476;8.084;2023-03-20T07:41:32;95674.00;;;20.07;38.65
66486;BME280;53303;47.476;8.084;2023-03-20T07:44:00;95669.44;;;20.04;38.61
66486;BME280;53303;47.476;8.084;2023-03-20T07:46:26;95664.66;;;19.99;38.72
66486;BME280;53303;47.476;8.084;2023-03-20T07:48:51;95662.88;;;19.96;38.51
66486;BME280;53303;47.476;8.084;2023-03-20T07:51:20;95668.41;;;19.96;38.63
66486;BME280;53303;47.476;8.084;2023-03-20T07:53:46;95669.44;;;19.99;38.59
66486;BME280;53303;47.476;8.084;2023-03-20T07:56:14;95647.78;;;19.86;38.56
66486;BME280;53303;47.476;8.084;2023-03-20T07:58:39;95665.91;;;19.98;38.87
66486;BME280;53303;47.476;8.084;2023-03-20T08:01:05;95669.19;;;19.96;38.82
66486;BME280;53303;47.476;8.084;2023-03-20T08:03:30;95694.63;;;20.06;38.62
66486;BME280;53303;47.476;8.084;2023-03-20T08:05:56;95683.78;;;19.97;38.73
66486;BME280;53303;47.476;8.084;2023-03-20T08:08:21;95676.22;;;19.86;38.67
66486;BME280;53303;47.476;8.084;2023-03-20T08:10:47;95702.94;;;20.06;38.76
66486;BME280;53303;47.476;8.084;2023-03-20T08:13:12;95711.50;;;20.08;38.48
66486;BME280;53303;47.476;8.084;2023-03-20T08:15:40;95699.13;;;19.98;38.67
66486;BME280;53303;47.476;8.084;2023-03-20T08:18:06;95690.81;;;19.92;38.65
66486;BME280;53303;47.476;8.084;2023-03-20T08:20:31;95695.63;;;19.97;38.74
66486;BME280;53303;47.476;8.084;2023-03-20T08:22:59;95716.03;;;20.06;38.53
66486;BME280;53303;47.476;8.084;2023-03-20T08:25:25;95705.44;;;19.99;38.79
66486;BME280;53303;47.476;8.084;2023-03-20T08:27:56;95710.25;;;20.04;38.71
66486;BME280;53303;47.476;8.084;2023-03-20T08:30:24;95710.50;;;20.00;38.62
66486;BME280;53303;47.476;8.084;2023-03-20T08:32:52;95716.28;;;20.08;38.75
66486;BME280;53303;47.476;8.084;2023-03-20T08:35:20;95717.28;;;20.10;38.63
66486;BME280;53303;47.476;8.084;2023-03-20T08:37:52;95707.25;;;20.07;38.64
66486;BME280;53303;47.476;8.084;2023-03-20T08:40:18;95700.91;;;20.01;38.54
66486;BME280;53303;47.476;8.084;2023-03-20T08:42:43;95713.28;;;20.11;38.77
66486;BME280;53303;47.476;8.084;2023-03-20T08:45:14;95707.75;;;20.11;38.42
66486;BME280;53303;47.476;8.084;2023-03-20T08:47:39;95714.81;;;20.12;38.78
66486;BME280;53303;47.476;8.084;2023-03-20T08:50:05;95703.94;;;20.03;38.48
66486;BME280;53303;47.476;8.084;2023-03-20T08:52:32;95715.78;;;20.09;38.59
66486;BME280;53303;47.476;8.084;2023-03-20T08:54:57;95710.75;;;20.08;38.51
66486;BME280;53303;47.476;8.084;2023-03-20T08:57:22;95700.66;;;19.99;38.65
66486;BME280;53303;47.476;8.084;2023-03-20T08:59:48;95727.38;;;20.13;38.66
66486;BME280;53303;47.476;8.084;2023-03-20T09:02:13;95715.25;;;20.05;38.70
66486;BME280;53303;47.476;8.084;2023-03-20T09:04:39;95729.91;;;20.11;38.40
66486;BME280;53303;47.476;8.084;2023-03-20T09:07:05;95726.13;;;20.14;38.54
66486;BME280;53303;47.476;8.084;2023-03-20T09:09:33;95711.25;;;20.12;38.47
66486;BME280;53303;47.476;8.084;2023-03-20T09:12:02;95718.06;;;20.16;38.53
66486;BME280;53303;47.476;8.084;2023-03-20T09:14:27;95716.06;;;20.11;38.40
66486;BME280;53303;47.476;8.084;2023-03-20T09:16:53;95724.88;;;20.15;38.38
66486;BME280;53303;47.476;8.084;2023-03-20T09:19:19;95720.09;;;20.16;38.45
66486;BME280;53303;47.476;8.084;2023-03-20T09:21:47;95709.75;;;20.11;38.44
66486;BME280;53303;47.476;8.084;2023-03-20T09:24:13;95715.03;;;20.09;38.36
66486;BME280;53303;47.476;8.084;2023-03-20T09:26:39;95723.13;;;20.18;38.35
66486;BME280;53303;47.476;8.084;2023-03-20T09:29:05;95709.25;;;20.12;38.44
66486;BME280;53303;47.476;8.084;2023-03-20T09:31:31;95713.53;;;20.19;38.46
66486;BME280;53303;47.476;8.084;2023-03-20T09:33:56;95709.03;;;20.16;38.58
66486;BME280;53303;47.476;8.084;2023-03-20T09:36:22;95713.53;;;20.19;38.40
66486;BME280;53303;47.476;8.084;2023-03-20T09:38:47;95710.75;;;20.19;38.44
66486;BME280;53303;47.476;8.084;2023-03-20T09:41:21;95700.94;;;20.12;38.43
66486;BME280;53303;47.476;8.084;2023-03-20T09:47:08;95706.75;;;20.14;38.32
66486;BME280;53303;47.476;8.084;2023-03-20T09:52:34;95713.53;;;20.13;38.24
66486;BME280;53303;47.476;8.084;2023-03-20T09:55:15;95718.56;;;20.15;38.40
66486;BME280;53303;47.476;8.084;2023-03-20T09:57:47;95705.22;;;20.08;38.23
66486;BME280;53303;47.476;8.084;2023-03-20T10:00:22;95722.63;;;20.20;38.38
66486;BME280;53303;47.476;8.084;2023-03-20T10:02:58;95702.44;;;20.02;38.39
66486;BME280;53303;47.476;8.084;2023-03-20T10:07:58;95721.34;;;20.21;38.32
66486;BME280;53303;47.476;8.084;2023-03-20T10:13:41;95716.56;;;20.15;38.48
66486;BME280;53303;47.476;8.084;2023-03-20T10:19:30;95722.88;;;20.16;38.38
66486;BME280;53303;47.476;8.084;2023-03-20T10:24:53;95699.66;;;20.02;38.39
66486;BME280;53303;47.476;8.084;2023-03-20T10:27:24;95718.56;;;20.21;38.43
66486;BME280;53303;47.476;8.084;2023-03-20T10:33:17;95721.09;;;20.19;38.34
66486;BME280;53303;47.476;8.084;2023-03-20T10:41:13;95699.94;;;20.10;38.31
66486;BME280;53303;47.476;8.084;2023-03-20T10:43:41;95718.84;;;20.23;38.27
66486;BME280;53303;47.476;8.084;2023-03-20T10:46:11;95706.00;;;20.20;38.15
66486;BME280;53303;47.476;8.084;2023-03-20T10:51:45;95712.53;;;20.22;38.16
66486;BME280;53303;47.476;8.084;2023-03-20T10:54:26;95716.06;;;20.23;38.39
66486;BME280;53303;47.476;8.084;2023-03-20T10:56:54;95715.56;;;20.24;38.32
66486;BME280;53303;47.476;8.084;2023-03-20T11:01:55;95720.59;;;20.26;38.17
66486;BME280;53303;47.476;8.084;2023-03-20T11:04:23;95719.84;;;20.25;38.06
66486;BME280;53303;47.476;8.084;2023-03-20T11:09:21;95723.38;;;20.26;38.34
66486;BME280;53303;47.476;8.084;2023-03-20T11:11:56;95717.34;;;20.22;38.30
66486;BME280;53303;47.476;8.084;2023-03-20T11:14:24;95723.38;;;20.26;38.19
66486;BME280;53303;47.476;8.084;2023-03-20T11:16:55;95722.13;;;20.27;38.13
66486;BME280;53303;47.476;8.084;2023-03-20T11:19:22;95723.63;;;20.28;38.22
66486;BME280;53303;47.476;8.084;2023-03-20T11:21:57;95722.13;;;20.27;38.20
66486;BME280;53303;47.476;8.084;2023-03-20T11:24:40;95727.41;;;20.25;38.29
66486;BME280;53303;47.476;8.084;2023-03-20T11:27:15;95723.13;;;20.24;38.22
66486;BME280;53303;47.476;8.084;2023-03-20T11:29:45;95729.16;;;20.28;38.25
66486;BME280;53303;47.476;8.084;2023-03-20T11:32:31;95723.63;;;20.28;38.17
66486;BME280;53303;47.476;8.084;2023-03-20T11:35:21;95714.81;;;20.18;38.35
66486;BME280;53303;47.476;8.084;2023-03-20T11:37:54;95725.16;;;20.29;38.19
66486;BME280;53303;47.476;8.084;2023-03-20T11:40:25;95722.38;;;20.29;38.19
66486;BME280;53303;47.476;8.084;2023-03-20T11:45:25;95719.13;;;20.30;38.44
66486;BME280;53303;47.476;8.084;2023-03-20T11:47:57;95706.75;;;20.31;38.33
66486;BME280;53303;47.476;8.084;2023-03-20T11:50:31;95706.75;;;20.31;38.11
66486;BME280;53303;47.476;8.084;2023-03-20T11:53:02;95708.28;;;20.32;38.47
66486;BME280;53303;47.476;8.084;2023-03-20T11:55:32;95706.00;;;20.31;38.10
66486;BME280;53303;47.476;8.084;2023-03-20T11:57:59;95706.50;;;20.35;38.32
66486;BME280;53303;47.476;8.084;2023-03-20T12:00:36;95701.97;;;20.26;38.30
66486;BME280;53303;47.476;8.084;2023-03-20T12:06:00;95700.72;;;20.39;38.06
66486;BME280;53303;47.476;8.084;2023-03-20T12:08:27;95698.19;;;20.41;38.33
66486;BME280;53303;47.476;8.084;2023-03-20T12:11:14;95697.44;;;20.40;38.05
66486;BME280;53303;47.476;8.084;2023-03-20T12:13:43;95698.19;;;20.41;38.17
66486;BME280;53303;47.476;8.084;2023-03-20T12:16:17;95701.75;;;20.41;38.21
66486;BME280;53303;47.476;8.084;2023-03-20T12:18:52;95693.66;;;20.43;38.13
66486;BME280;53303;47.476;8.084;2023-03-20T12:26:45;95681.31;;;20.44;38.17
66486;BME280;53303;47.476;8.084;2023-03-20T12:32:09;95675.75;;;20.44;38.22
66486;BME280;53303;47.476;8.084;2023-03-20T12:34:41;95672.00;;;20.42;38.23
66486;BME280;53303;47.476;8.084;2023-03-20T12:37:09;95665.94;;;20.32;38.48
66486;BME280;53303;47.476;8.084;2023-03-20T12:39:59;95657.41;;;20.41;38.59
66486;BME280;53303;47.476;8.084;2023-03-20T12:42:38;95658.88;;;20.42;38.17
66486;BME280;53303;47.476;8.084;2023-03-20T12:45:26;95659.66;;;20.43;38.19
66486;BME280;53303;47.476;8.084;2023-03-20T12:56:20;95650.31;;;20.46;38.26
66486;BME280;53303;47.476;8.084;2023-03-20T12:59:09;95646.31;;;20.41;38.15
66486;BME280;53303;47.476;8.084;2023-03-20T13:01:51;95655.59;;;20.49;38.14
66486;BME280;53303;47.476;8.084;2023-03-20T13:06:55;95649.31;;;20.49;38.16
66486;BME280;53303;47.476;8.084;2023-03-20T13:14:32;95644.78;;;20.57;38.04
66486;BME280;53303;47.476;8.084;2023-03-20T13:17:26;95635.69;;;20.51;38.10
66486;BME280;53303;47.476;8.084;2023-03-20T13:28:23;95621.84;;;20.57;38.01
66486;BME280;53303;47.476;8.084;2023-03-20T13:31:19;95632.44;;;20.64;38.06
66486;BME280;53303;47.476;8.084;2023-03-20T13:36:46;95625.13;;;20.72;37.91
66486;BME280;53303;47.476;8.084;2023-03-20T13:41:58;95617.06;;;20.68;38.15
66486;BME280;53303;47.476;8.084;2023-03-20T13:44:27;95613.28;;;20.71;38.15
66486;BME280;53303;47.476;8.084;2023-03-20T13:46:56;95603.44;;;20.70;38.27
66486;BME280;53303;47.476;8.084;2023-03-20T13:57:27;95602.94;;;20.61;38.28
66486;BME280;53303;47.476;8.084;2023-03-20T14:00:08;95600.69;;;20.53;38.40
66486;BME280;53303;47.476;8.084;2023-03-20T14:05:41;95596.91;;;20.62;38.51
66486;BME280;53303;47.476;8.084;2023-03-20T14:13:21;95581.53;;;20.61;38.34
66486;BME280;53303;47.476;8.084;2023-03-20T14:15:55;95571.69;;;20.60;38.44
66486;BME280;53303;47.476;8.084;2023-03-20T14:18:23;95572.94;;;20.59;38.44
66486;BME280;53303;47.476;8.084;2023-03-20T14:20:53;95580.53;;;20.64;38.49
66486;BME280;53303;47.476;8.084;2023-03-20T14:23:34;95568.16;;;20.54;38.41
66486;BME280;53303;47.476;8.084;2023-03-20T14:26:07;95584.56;;;20.63;38.37
66486;BME280;53303;47.476;8.084;2023-03-20T14:31:27;95569.94;;;20.57;38.48
66486;BME280;53303;47.476;8.084;2023-03-20T14:44:28;95550.03;;;20.47;38.54
66486;BME280;53303;47.476;8.084;2023-03-20T14:47:08;95579.25;;;20.60;38.60
66486;BME280;53303;47.476;8.084;2023-03-20T14:49:49;95561.59;;;20.51;38.28
66486;BME280;53303;47.476;8.084;2023-03-20T14:54:51;95574.44;;;20.60;38.63
66486;BME280;53303;47.476;8.084;2023-03-20T14:57:26;95563.38;;;20.54;38.47
66486;BME280;53303;47.476;8.084;2023-03-20T14:59:54;95571.69;;;20.60;38.57
66486;BME280;53303;47.476;8.084;2023-03-20T15:02:28;95568.66;;;20.58;38.55
66486;BME280;53303;47.476;8.084;2023-03-20T15:04:55;95568.66;;;20.58;38.61
66486;BME280;53303;47.476;8.084;2023-03-20T15:07:28;95572.94;;;20.59;38.51
66486;BME280;53303;47.476;8.084;2023-03-20T15:10:00;95571.44;;;20.58;38.46
66486;BME280;53303;47.476;8.084;2023-03-20T15:12:33;95563.63;;;20.57;38.59
66486;BME280;53303;47.476;8.084;2023-03-20T15:15:02;95559.34;;;20.56;38.66
66486;BME280;53303;47.476;8.084;2023-03-20T15:17:36;95569.94;;;20.57;38.67
66486;BME280;53303;47.476;8.084;2023-03-20T15:20:25;95549.56;;;20.43;38.65
66486;BME280;53303;47.476;8.084;2023-03-20T15:22:57;95559.34;;;20.56;38.75
66486;BME280;53303;47.476;8.084;2023-03-20T15:25:38;95561.88;;;20.53;38.66
66486;BME280;53303;47.476;8.084;2023-03-20T15:28:12;95553.56;;;20.53;38.71
66486;BME280;53303;47.476;8.084;2023-03-20T15:30:39;95545.50;;;20.50;38.57
66486;BME280;53303;47.476;8.084;2023-03-20T15:33:06;95554.06;;;20.58;38.67
66486;BME280;53303;47.476;8.084;2023-03-20T15:35:34;95558.06;;;20.57;38.75
66486;BME280;53303;47.476;8.084;2023-03-20T15:38:04;95554.56;;;20.56;38.68
66486;BME280;53303;47.476;8.084;2023-03-20T15:40:31;95556.06;;;20.57;38.61
66486;BME280;53303;47.476;8.084;2023-03-20T15:43:21;95562.63;;;20.54;38.69
66486;BME280;53303;47.476;8.084;2023-03-20T15:45:48;95556.59;;;20.56;38.69
66486;BME280;53303;47.476;8.084;2023-03-20T15:48:22;95553.03;;;20.55;38.53